Time;durP1;ratioP1;P1;durP2;ratioP2;P2;SDS_P1;SDS_P2;PMS_P1;PMS_P2;Temp;Humidity;BMP_temperature;BMP_pressure;BME280_temperature;BME280_humidity;BME280_pressure;Samples;Min_cycle;Max_cycle;Signal;HPM_P1;HPM_P2
2021/10/16 00:00:12;;;;;;;18.08;4.13;;;7.00;99.90;;;;;;5106876;28;20054;-67
2021/10/16 00:02:38;;;;;;;14.68;4.95;;;6.90;99.90;;;;;;5081403;28;20048;-66
2021/10/16 00:05:04;;;;;;;14.15;4.95;;;6.90;99.90;;;;;;5087876;28;20139;-66
2021/10/16 00:07:32;;;;;;;12.48;5.03;;;6.80;99.90;;;;;;5099947;28;20037;-66
2021/10/16 00:09:58;;;;;;;20.92;5.22;;;6.80;99.90;;;;;;5092728;28;20050;-67
2021/10/16 00:12:24;;;;;;;14.23;4.65;;;6.80;99.90;;;;;;5101298;28;20436;-66
2021/10/16 00:14:50;;;;;;;14.55;5.32;;;6.80;99.90;;;;;;5103420;28;20036;-66
2021/10/16 00:17:16;;;;;;;17.40;5.43;;;6.80;99.90;;;;;;5102788;28;20049;-66
2021/10/16 00:19:42;;;;;;;28.45;6.80;;;6.70;99.90;;;;;;5089290;28;20037;-66
2021/10/16 00:22:07;;;;;;;16.45;6.10;;;6.70;99.90;;;;;;5086419;28;20103;-66
2021/10/16 00:24:34;;;;;;;21.27;5.20;;;6.70;99.90;;;;;;5092091;28;20040;-66
2021/10/16 00:26:59;;;;;;;17.83;6.13;;;6.70;99.90;;;;;;5105735;28;20050;-66
2021/10/16 00:29:25;;;;;;;18.75;5.78;;;6.70;99.90;;;;;;5098566;28;20076;-66
2021/10/16 00:31:51;;;;;;;20.83;5.82;;;6.70;99.90;;;;;;5106037;28;20047;-66
2021/10/16 00:34:16;;;;;;;14.50;5.38;;;6.80;99.90;;;;;;5097274;28;20082;-66
2021/10/16 00:36:43;;;;;;;18.13;5.40;;;6.80;99.90;;;;;;5104597;28;20089;-66
2021/10/16 00:39:08;;;;;;;22.58;6.53;;;6.90;99.90;;;;;;5097204;28;20039;-66
2021/10/16 00:41:34;;;;;;;25.50;6.50;;;6.90;99.90;;;;;;5085447;28;20051;-66
2021/10/16 00:44:19;;;;;;;17.20;5.20;;;6.90;99.90;;;;;;5093705;28;20035;-66
2021/10/16 00:46:46;;;;;;;13.15;4.10;;;7.10;99.90;;;;;;5085248;28;20059;-66
2021/10/16 00:49:13;;;;;;;11.32;4.10;;;7.10;99.90;;;;;;5096518;28;20040;-66
2021/10/16 00:51:39;;;;;;;17.10;4.32;;;7.10;99.90;;;;;;5103448;28;20056;-66
2021/10/16 00:54:08;;;;;;;10.10;3.92;;;7.00;99.90;;;;;;5096595;28;20055;-66
2021/10/16 00:56:36;;;;;;;15.23;4.80;;;7.00;99.90;;;;;;5102875;28;20047;-66
2021/10/16 00:59:04;;;;;;;17.77;4.60;;;6.90;99.90;;;;;;5105388;28;20052;-66
2021/10/16 01:01:33;;;;;;;20.08;5.28;;;7.00;99.90;;;;;;5102615;28;20229;-66
2021/10/16 01:04:00;;;;;;;11.95;3.85;;;7.00;99.90;;;;;;5094623;28;20059;-66
2021/10/16 01:06:26;;;;;;;15.23;3.95;;;6.90;99.90;;;;;;5098711;28;20068;-66
2021/10/16 01:08:55;;;;;;;18.80;3.95;;;7.00;99.90;;;;;;5096433;28;20053;-66
2021/10/16 01:11:37;;;;;;;16.17;3.40;;;6.90;99.90;;;;;;5096798;28;20101;-67
2021/10/16 01:14:08;;;;;;;13.45;4.15;;;6.80;99.90;;;;;;5095986;28;20048;-66
2021/10/16 01:16:35;;;;;;;17.50;4.05;;;6.80;99.90;;;;;;5097785;28;20051;-66
2021/10/16 01:19:02;;;;;;;18.65;3.60;;;6.80;99.90;;;;;;5096746;28;20048;-66
2021/10/16 01:21:30;;;;;;;13.32;3.47;;;6.80;99.90;;;;;;5096058;28;20056;-66
2021/10/16 01:23:58;;;;;;;11.98;3.40;;;6.80;99.90;;;;;;5105253;28;20047;-66
2021/10/16 01:26:28;;;;;;;16.33;4.35;;;6.80;99.90;;;;;;5099017;28;20059;-66
2021/10/16 01:28:56;;;;;;;24.58;4.63;;;6.70;99.90;;;;;;5098380;28;20032;-66
2021/10/16 01:31:25;;;;;;;12.82;3.22;;;6.70;99.90;;;;;;5075360;28;20055;-66
2021/10/16 01:33:51;;;;;;;20.92;4.53;;;6.70;99.90;;;;;;5086278;28;20090;-66
2021/10/16 01:36:17;;;;;;;16.27;4.25;;;6.60;99.90;;;;;;5075229;28;20510;-66
2021/10/16 01:38:42;;;;;;;16.42;4.43;;;6.60;99.90;;;;;;5104256;28;20078;-66
2021/10/16 01:41:08;;;;;;;20.52;5.05;;;6.60;99.90;;;;;;5101579;28;20048;-66
2021/10/16 01:43:34;;;;;;;19.38;4.57;;;6.50;99.90;;;;;;5101858;28;20044;-66
2021/10/16 01:46:00;;;;;;;12.65;5.38;;;6.50;99.90;;;;;;5103953;28;20096;-66
2021/10/16 01:48:26;;;;;;;19.60;5.07;;;6.50;99.90;;;;;;5099521;28;20059;-66
2021/10/16 01:50:53;;;;;;;13.50;4.78;;;6.50;99.90;;;;;;5105304;28;20046;-66
2021/10/16 01:53:19;;;;;;;20.02;5.35;;;6.50;99.90;;;;;;5098664;28;20085;-66
2021/10/16 01:55:45;;;;;;;25.30;5.35;;;6.50;99.90;;;;;;5099292;28;20123;-66
2021/10/16 01:58:14;;;;;;;19.05;5.32;;;6.50;99.90;;;;;;5096735;28;20044;-66
2021/10/16 02:00:44;;;;;;;16.13;4.80;;;6.50;99.90;;;;;;5100514;28;20040;-66
2021/10/16 02:03:10;;;;;;;19.98;5.63;;;6.50;99.90;;;;;;5093413;28;20040;-66
2021/10/16 02:05:42;;;;;;;13.65;3.85;;;6.50;99.90;;;;;;5100501;28;20048;-66
2021/10/16 02:08:07;;;;;;;19.02;4.55;;;6.60;99.90;;;;;;5093186;28;20075;-66
2021/10/16 02:10:33;;;;;;;18.30;4.18;;;6.60;99.90;;;;;;5099421;28;20091;-66
2021/10/16 02:12:58;;;;;;;18.30;4.70;;;6.70;99.90;;;;;;5095350;28;20044;-66
2021/10/16 02:15:24;;;;;;;14.32;3.92;;;6.80;99.90;;;;;;5100614;28;20044;-66
2021/10/16 02:17:50;;;;;;;14.20;4.30;;;6.80;99.90;;;;;;5101072;28;20036;-66
2021/10/16 02:20:15;;;;;;;13.90;3.92;;;6.90;99.90;;;;;;5103914;28;20050;-66
2021/10/16 02:22:42;;;;;;;18.77;4.53;;;7.00;99.90;;;;;;5103335;28;20287;-67
2021/10/16 02:25:08;;;;;;;14.18;4.15;;;7.00;99.90;;;;;;5074639;28;20182;-66
2021/10/16 02:27:34;;;;;;;9.70;3.80;;;7.10;99.90;;;;;;5103319;28;20044;-66
2021/10/16 02:30:00;;;;;;;12.13;3.50;;;7.20;99.90;;;;;;5097028;28;20104;-66
2021/10/16 02:32:25;;;;;;;12.98;3.38;;;7.20;99.90;;;;;;5102103;28;20044;-66
2021/10/16 02:34:51;;;;;;;14.05;2.90;;;7.30;99.90;;;;;;5098334;28;20048;-66
2021/10/16 02:37:17;;;;;;;13.38;2.83;;;7.30;99.90;;;;;;5099864;28;20036;-66
2021/10/16 02:39:42;;;;;;;17.15;3.00;;;7.30;99.90;;;;;;5099765;28;20068;-66
2021/10/16 02:42:08;;;;;;;14.95;2.60;;;7.30;99.90;;;;;;5100336;28;20048;-66
2021/10/16 02:44:34;;;;;;;8.82;2.72;;;7.60;99.90;;;;;;5102161;28;20047;-66
2021/10/16 02:47:00;;;;;;;9.23;2.97;;;7.60;99.90;;;;;;5095774;28;20073;-66
2021/10/16 02:49:26;;;;;;;14.07;2.65;;;7.60;99.90;;;;;;5102311;28;20040;-66
2021/10/16 02:51:52;;;;;;;12.57;2.72;;;7.60;99.90;;;;;;5095138;28;20059;-67
2021/10/16 02:54:18;;;;;;;8.23;2.00;;;7.70;99.90;;;;;;5100259;28;20049;-67
2021/10/16 02:56:43;;;;;;;12.70;2.67;;;7.80;99.90;;;;;;5105046;28;20151;-66
2021/10/16 02:59:09;;;;;;;9.80;1.83;;;7.80;99.90;;;;;;5100964;28;20051;-67
2021/10/16 03:01:35;;;;;;;11.98;2.42;;;8.00;99.90;;;;;;5093766;28;20059;-67
2021/10/16 03:04:01;;;;;;;8.10;1.65;;;8.00;99.90;;;;;;5100777;28;20048;-67
2021/10/16 03:06:26;;;;;;;16.10;2.95;;;8.00;99.90;;;;;;5093552;28;20127;-67
2021/10/16 03:08:52;;;;;;;10.68;2.22;;;8.10;99.90;;;;;;5085548;28;20051;-67
2021/10/16 03:11:17;;;;;;;11.38;2.55;;;8.10;99.90;;;;;;5092495;28;20160;-67
2021/10/16 03:13:43;;;;;;;10.95;2.55;;;8.20;99.90;;;;;;5100274;28;20044;-67
2021/10/16 03:16:10;;;;;;;11.18;3.50;;;8.20;99.90;;;;;;5093174;28;20068;-67
2021/10/16 03:18:35;;;;;;;14.18;2.65;;;8.20;99.90;;;;;;5100274;28;20044;-66
2021/10/16 03:21:01;;;;;;;16.27;3.63;;;8.30;99.90;;;;;;5094380;28;20044;-67
2021/10/16 03:23:27;;;;;;;10.55;2.92;;;8.30;99.90;;;;;;5096451;28;20371;-67
2021/10/16 03:25:53;;;;;;;8.77;2.42;;;8.20;99.90;;;;;;5095714;28;20128;-66
2021/10/16 03:28:18;;;;;;;8.82;2.53;;;8.20;99.90;;;;;;5094026;28;20059;-66
2021/10/16 03:30:44;;;;;;;13.20;2.75;;;8.20;99.90;;;;;;5079798;28;20037;-66
2021/10/16 03:33:10;;;;;;;8.13;2.40;;;8.20;99.90;;;;;;5092873;28;20040;-67
2021/10/16 03:35:35;;;;;;;9.27;1.95;;;8.20;99.90;;;;;;5084333;28;20040;-67
2021/10/16 03:38:01;;;;;;;12.40;2.65;;;8.30;99.90;;;;;;5100411;28;20195;-66
2021/10/16 03:40:27;;;;;;;14.00;2.90;;;8.40;99.90;;;;;;5098571;28;20132;-67
2021/10/16 03:42:53;;;;;;;12.88;2.67;;;8.40;99.90;;;;;;5092182;28;20071;-67
2021/10/16 03:45:20;;;;;;;12.63;2.05;;;8.40;99.90;;;;;;5099027;28;20059;-67
2021/10/16 03:47:46;;;;;;;26.17;2.47;;;8.40;99.90;;;;;;5091456;28;20048;-66
2021/10/16 03:50:12;;;;;;;11.07;2.17;;;8.40;99.90;;;;;;5085735;28;20056;-66
2021/10/16 03:52:38;;;;;;;10.02;2.22;;;8.40;99.90;;;;;;5090044;28;20115;-67
2021/10/16 03:55:04;;;;;;;5.97;1.92;;;8.40;99.90;;;;;;5096692;28;20036;-66
2021/10/16 03:57:30;;;;;;;16.52;3.70;;;8.40;99.90;;;;;;5090556;28;20055;-67
2021/10/16 03:59:56;;;;;;;11.13;1.83;;;8.40;99.90;;;;;;5097291;28;20040;-66
2021/10/16 04:02:21;;;;;;;7.90;1.88;;;8.40;99.90;;;;;;5090043;28;20136;-67
2021/10/16 04:04:47;;;;;;;10.90;2.28;;;8.40;99.90;;;;;;5096916;28;20067;-66
2021/10/16 04:07:13;;;;;;;7.25;2.78;;;8.50;99.90;;;;;;5090332;28;20051;-67
2021/10/16 04:09:38;;;;;;;14.02;2.28;;;8.50;99.90;;;;;;5096002;28;20047;-67
2021/10/16 04:12:05;;;;;;;12.35;3.17;;;8.40;99.90;;;;;;5091879;28;20541;-66
2021/10/16 04:14:30;;;;;;;10.40;1.92;;;8.40;99.90;;;;;;5094836;28;20051;-66
2021/10/16 04:16:56;;;;;;;8.77;1.95;;;8.40;99.90;;;;;;5094172;28;20040;-67
2021/10/16 04:19:22;;;;;;;11.88;2.20;;;8.50;99.90;;;;;;5091946;28;20124;-67
2021/10/16 04:21:48;;;;;;;7.88;2.17;;;8.50;99.90;;;;;;5100194;28;20044;-67
2021/10/16 04:24:13;;;;;;;11.38;2.08;;;8.40;99.90;;;;;;5096413;28;20415;-67
2021/10/16 04:26:39;;;;;;;9.38;3.17;;;8.40;99.90;;;;;;5095050;28;20069;-67
2021/10/16 04:29:05;;;;;;;11.85;2.05;;;8.40;99.90;;;;;;5098222;28;20056;-67
2021/10/16 04:31:30;;;;;;;6.80;1.75;;;8.30;99.90;;;;;;5093137;28;20131;-67
2021/10/16 04:33:56;;;;;;;11.32;2.40;;;8.30;99.90;;;;;;5101482;28;20037;-67
2021/10/16 04:36:22;;;;;;;10.40;3.05;;;8.30;99.90;;;;;;5097041;28;20041;-67
2021/10/16 04:38:49;;;;;;;13.93;2.53;;;8.30;99.90;;;;;;5103768;28;20325;-67
2021/10/16 04:41:16;;;;;;;14.27;3.28;;;8.30;99.90;;;;;;5096105;28;20523;-67
2021/10/16 04:43:43;;;;;;;9.60;2.80;;;8.30;99.90;;;;;;5102941;28;20067;-67
2021/10/16 04:46:12;;;;;;;9.20;2.38;;;8.30;99.90;;;;;;5093585;28;20052;-67
2021/10/16 04:48:41;;;;;;;9.63;2.00;;;8.30;99.90;;;;;;5102510;28;20131;-67
2021/10/16 04:51:07;;;;;;;8.73;2.53;;;8.30;99.90;;;;;;5094656;28;20055;-67
2021/10/16 04:53:33;;;;;;;9.25;2.13;;;8.30;99.90;;;;;;5100975;28;20078;-67
2021/10/16 04:55:59;;;;;;;9.35;2.38;;;8.40;99.90;;;;;;5106350;28;20119;-67
2021/10/16 04:58:25;;;;;;;14.55;3.05;;;8.40;99.90;;;;;;5101516;28;20051;-67
2021/10/16 05:00:50;;;;;;;10.27;2.75;;;8.40;99.90;;;;;;5094726;28;20126;-67
2021/10/16 05:03:16;;;;;;;12.45;2.97;;;8.30;99.90;;;;;;5101535;28;20046;-67
2021/10/16 05:05:42;;;;;;;6.53;1.90;;;8.30;99.90;;;;;;5093797;28;20036;-66
2021/10/16 05:08:07;;;;;;;12.65;3.13;;;8.40;99.90;;;;;;5101102;28;20044;-67
2021/10/16 05:10:34;;;;;;;14.85;2.22;;;8.30;99.90;;;;;;5103031;28;20051;-66
2021/10/16 05:13:00;;;;;;;8.43;2.25;;;8.50;99.90;;;;;;5100431;28;20036;-67
2021/10/16 05:15:25;;;;;;;11.07;2.25;;;8.40;99.90;;;;;;5096176;28;20041;-67
2021/10/16 05:17:51;;;;;;;8.05;2.33;;;8.30;99.90;;;;;;5098500;28;20071;-67
2021/10/16 05:20:17;;;;;;;7.15;2.00;;;8.40;99.90;;;;;;5098198;28;20531;-67
2021/10/16 05:22:42;;;;;;;9.60;2.20;;;8.50;99.90;;;;;;5094070;28;20067;-67
2021/10/16 05:25:10;;;;;;;8.65;2.20;;;8.50;99.90;;;;;;5084377;28;20048;-67
2021/10/16 05:27:37;;;;;;;9.30;2.58;;;8.50;99.90;;;;;;5100478;28;20060;-67
2021/10/16 05:30:03;;;;;;;15.45;2.63;;;8.50;99.90;;;;;;5098923;28;20052;-67
2021/10/16 05:32:28;;;;;;;10.98;2.28;;;8.50;99.90;;;;;;5099287;28;20068;-67
2021/10/16 05:34:54;;;;;;;9.50;2.00;;;8.50;99.90;;;;;;5096745;28;20550;-67
2021/10/16 05:37:20;;;;;;;12.45;2.85;;;8.50;99.90;;;;;;5103495;28;20040;-67
2021/10/16 05:39:45;;;;;;;12.93;2.22;;;8.50;99.90;;;;;;5096346;28;20063;-66
2021/10/16 05:42:11;;;;;;;8.75;2.45;;;8.50;99.90;;;;;;5103598;28;20436;-67
2021/10/16 05:44:37;;;;;;;14.85;2.20;;;8.50;99.90;;;;;;5077775;28;20048;-67
2021/10/16 05:47:03;;;;;;;13.23;2.55;;;8.40;99.90;;;;;;5101708;28;20066;-67
2021/10/16 05:49:28;;;;;;;11.02;2.50;;;8.40;99.90;;;;;;5094611;28;20040;-67
2021/10/16 05:51:54;;;;;;;9.10;2.58;;;8.40;99.90;;;;;;5102114;28;20056;-67
2021/10/16 05:54:19;;;;;;;13.90;3.60;;;8.40;99.90;;;;;;5075680;28;20098;-67
2021/10/16 05:56:45;;;;;;;13.75;2.95;;;8.40;99.90;;;;;;5101786;28;20063;-67
2021/10/16 05:59:11;;;;;;;14.38;3.03;;;8.40;99.90;;;;;;5094278;28;20090;-67
2021/10/16 06:01:37;;;;;;;9.35;2.75;;;8.40;99.90;;;;;;5101497;28;20488;-67
2021/10/16 06:04:03;;;;;;;16.15;2.55;;;8.40;99.90;;;;;;5094139;28;20055;-67
2021/10/16 06:06:28;;;;;;;7.30;2.30;;;8.40;99.90;;;;;;5101173;28;20040;-67
2021/10/16 06:08:54;;;;;;;8.48;2.33;;;8.50;99.90;;;;;;5093820;28;20098;-66
2021/10/16 06:11:20;;;;;;;11.15;2.30;;;8.50;99.90;;;;;;5100349;28;20040;-66
2021/10/16 06:13:46;;;;;;;13.35;3.78;;;8.50;99.90;;;;;;5096037;28;20072;-66
2021/10/16 06:16:12;;;;;;;6.35;2.38;;;8.50;99.90;;;;;;5098294;28;20259;-66
2021/10/16 06:18:40;;;;;;;17.17;2.45;;;8.60;99.90;;;;;;5097656;28;20040;-67
2021/10/16 06:21:06;;;;;;;11.13;2.95;;;8.50;99.90;;;;;;5078246;28;20492;-66
2021/10/16 06:23:32;;;;;;;14.13;4.35;;;8.50;99.90;;;;;;5103453;28;20036;-66
2021/10/16 06:25:58;;;;;;;15.93;4.60;;;8.50;99.90;;;;;;5099746;28;20029;-66
2021/10/16 06:28:24;;;;;;;12.23;2.65;;;8.60;99.90;;;;;;5099828;28;20076;-66
2021/10/16 06:30:50;;;;;;;10.20;2.47;;;8.60;99.90;;;;;;5101807;28;20044;-66
2021/10/16 06:33:16;;;;;;;14.60;3.35;;;8.70;99.90;;;;;;5097505;28;20044;-66
2021/10/16 06:35:42;;;;;;;8.75;2.65;;;8.60;99.90;;;;;;5103046;28;20048;-67
2021/10/16 06:38:08;;;;;;;10.23;2.58;;;8.60;99.90;;;;;;5096536;28;20047;-66
2021/10/16 06:40:34;;;;;;;8.95;2.40;;;8.60;99.90;;;;;;5102752;28;20036;-66
2021/10/16 06:43:00;;;;;;;11.55;2.70;;;8.60;99.90;;;;;;5077921;28;20055;-66
2021/10/16 06:45:27;;;;;;;10.07;3.17;;;8.50;99.90;;;;;;5102289;28;20040;-66
2021/10/16 06:47:52;;;;;;;13.90;2.58;;;8.60;99.90;;;;;;5095256;28;20040;-66
2021/10/16 06:50:18;;;;;;;10.02;2.35;;;8.60;99.90;;;;;;5101213;28;20059;-66
2021/10/16 06:52:44;;;;;;;10.27;2.60;;;8.70;99.90;;;;;;5094633;28;20044;-67
2021/10/16 06:55:09;;;;;;;15.95;3.30;;;8.60;99.90;;;;;;5101347;28;20063;-66
2021/10/16 06:57:35;;;;;;;15.95;3.13;;;8.60;99.90;;;;;;5093610;28;20054;-66
2021/10/16 07:00:00;;;;;;;14.77;3.50;;;8.70;99.90;;;;;;5101542;28;20044;-66
2021/10/16 07:02:26;;;;;;;10.82;2.97;;;8.70;99.90;;;;;;5094379;28;20043;-66
2021/10/16 07:04:52;;;;;;;12.00;3.35;;;8.70;99.90;;;;;;5100844;28;20051;-67
2021/10/16 07:07:19;;;;;;;8.68;2.75;;;8.70;99.90;;;;;;5102068;28;20069;-67
2021/10/16 07:09:45;;;;;;;14.90;2.85;;;8.70;99.90;;;;;;5097456;28;20054;-65
2021/10/16 07:12:10;;;;;;;17.25;3.30;;;8.70;99.90;;;;;;5092798;28;20073;-69
2021/10/16 07:14:36;;;;;;;16.67;5.38;;;8.70;99.90;;;;;;5104984;28;20048;-65
2021/10/16 07:17:02;;;;;;;13.40;3.17;;;8.70;99.90;;;;;;5102069;28;20476;-68
2021/10/16 07:19:28;;;;;;;12.82;3.05;;;8.70;99.90;;;;;;5098168;28;20044;-67
2021/10/16 07:21:53;;;;;;;11.52;2.70;;;8.70;99.90;;;;;;5098133;28;20046;-67
2021/10/16 07:24:19;;;;;;;11.85;2.78;;;8.80;99.90;;;;;;5100285;28;20770;-67
2021/10/16 07:26:45;;;;;;;15.15;3.70;;;8.80;99.90;;;;;;5102640;28;20076;-68
2021/10/16 07:29:11;;;;;;;8.45;2.78;;;8.80;99.90;;;;;;5096859;28;20036;-67
2021/10/16 07:31:38;;;;;;;11.20;2.83;;;8.80;99.90;;;;;;5101983;28;20051;-67
2021/10/16 07:34:03;;;;;;;7.45;3.10;;;8.80;99.90;;;;;;5096825;28;20040;-67
2021/10/16 07:36:38;;;;;;;14.02;2.83;;;8.80;99.90;;;;;;5094036;28;20055;-67
2021/10/16 07:39:06;;;;;;;10.77;2.60;;;8.90;99.90;;;;;;5091593;28;20066;-67
2021/10/16 07:41:32;;;;;;;;;;;8.90;99.90;;;;;;5094257;28;20048;-67
2021/10/16 07:43:57;;;;;;;12.05;2.65;;;9.00;99.90;;;;;;5097491;28;19920;-67
2021/10/16 07:46:23;;;;;;;7.95;2.38;;;9.00;99.90;;;;;;5096648;28;20499;-67
2021/10/16 07:48:49;;;;;;;7.78;2.85;;;9.10;99.90;;;;;;5102949;28;20123;-67
2021/10/16 07:51:15;;;;;;;8.27;2.88;;;9.10;99.90;;;;;;5095943;28;20084;-67
2021/10/16 07:53:41;;;;;;;8.25;3.03;;;9.10;99.90;;;;;;5088804;28;20098;-67
2021/10/16 07:56:06;;;;;;;13.98;3.10;;;9.10;99.90;;;;;;5100206;28;20090;-67
2021/10/16 07:58:32;;;;;;;14.02;3.97;;;9.10;99.90;;;;;;5096636;28;20491;-67
2021/10/16 08:00:58;;;;;;;7.10;2.75;;;9.20;99.90;;;;;;5093504;28;20071;-67
2021/10/16 08:03:24;;;;;;;10.15;2.55;;;9.20;99.90;;;;;;5097523;28;20956;-67
2021/10/16 08:05:49;;;;;;;11.55;2.55;;;9.20;99.90;;;;;;5095945;28;20478;-67
2021/10/16 08:08:15;;;;;;;29.02;4.35;;;9.20;99.90;;;;;;5092918;28;20074;-66
2021/10/16 08:10:41;;;;;;;7.95;2.95;;;9.20;99.90;;;;;;5090508;28;20033;-66
2021/10/16 08:13:07;;;;;;;8.38;2.40;;;9.30;99.90;;;;;;5098133;28;20040;-67
2021/10/16 08:15:34;;;;;;;9.48;2.67;;;9.30;99.90;;;;;;5098284;28;20072;-66
2021/10/16 08:18:03;;;;;;;10.18;2.83;;;9.30;99.90;;;;;;5090704;28;20104;-68
2021/10/16 08:20:29;;;;;;;14.00;3.08;;;9.30;99.90;;;;;;5096440;28;20048;-66
2021/10/16 08:22:55;;;;;;;12.20;3.80;;;9.40;99.90;;;;;;5105622;28;20043;-68
2021/10/16 08:25:21;;;;;;;9.50;3.42;;;9.40;99.90;;;;;;5105950;28;20056;-66
2021/10/16 08:27:47;;;;;;;10.48;3.03;;;9.40;99.90;;;;;;5079635;28;20097;-67
2021/10/16 08:30:15;;;;;;;14.30;2.70;;;9.50;99.90;;;;;;5101929;28;20554;-67
2021/10/16 08:32:40;;;;;;;22.83;3.53;;;9.50;99.90;;;;;;5098676;28;20511;-67
2021/10/16 08:35:07;;;;;;;8.43;2.70;;;9.50;99.90;;;;;;5102522;28;20044;-69
2021/10/16 08:37:33;;;;;;;6.27;2.93;;;9.60;99.90;;;;;;5104129;28;20066;-68
2021/10/16 08:39:59;;;;;;;7.82;2.85;;;9.50;99.90;;;;;;5100043;28;20048;-68
2021/10/16 08:42:25;;;;;;;8.02;3.70;;;9.60;99.90;;;;;;5100958;28;20412;-68
2021/10/16 08:44:57;;;;;;;15.48;2.80;;;9.60;99.90;;;;;;5102185;28;20067;-67
2021/10/16 08:47:24;;;;;;;9.65;3.72;;;9.70;99.90;;;;;;5103956;28;20047;-67
2021/10/16 08:49:52;;;;;;;8.90;2.92;;;9.70;99.90;;;;;;5104281;28;20427;-69
2021/10/16 08:52:18;;;;;;;8.82;2.72;;;9.80;99.90;;;;;;5102698;28;20044;-68
2021/10/16 08:54:43;;;;;;;12.70;3.30;;;9.80;99.90;;;;;;5083580;28;20169;-67
2021/10/16 08:57:09;;;;;;;13.82;2.42;;;9.80;99.90;;;;;;5087766;28;20040;-67
2021/10/16 08:59:35;;;;;;;10.15;2.53;;;9.90;99.90;;;;;;5071779;28;20044;-75
2021/10/16 09:02:06;;;;;;;6.43;2.45;;;9.90;99.90;;;;;;5109485;28;20044;-74
2021/10/16 09:04:33;;;;;;;13.38;3.22;;;9.90;99.90;;;;;;5102593;28;20043;-67
2021/10/16 09:07:00;;;;;;;8.52;2.88;;;10.00;99.90;;;;;;5104375;28;20044;-69
2021/10/16 09:09:29;;;;;;;9.77;2.35;;;10.00;99.90;;;;;;5102415;28;20565;-68
2021/10/16 09:11:56;;;;;;;10.63;3.03;;;10.10;99.90;;;;;;5103338;28;20068;-64
2021/10/16 09:14:26;;;;;;;11.98;2.53;;;10.10;99.90;;;;;;5103133;28;20047;-64
2021/10/16 09:17:03;;;;;;;8.20;2.90;;;10.20;99.90;;;;;;5102765;28;20521;-65
2021/10/16 09:19:35;;;;;;;13.48;3.47;;;10.20;99.90;;;;;;5100348;28;20051;-64
2021/10/16 09:22:11;;;;;;;7.18;2.35;;;10.30;99.90;;;;;;5105724;28;20071;-63
2021/10/16 09:24:38;;;;;;;6.07;2.05;;;10.30;99.90;;;;;;5078114;28;20059;-65
2021/10/16 09:27:09;;;;;;;9.85;2.97;;;10.40;99.90;;;;;;5097672;28;20040;-66
2021/10/16 09:29:38;;;;;;;8.48;2.72;;;10.40;99.90;;;;;;5080501;28;20036;-64
2021/10/16 09:32:13;;;;;;;9.57;2.17;;;10.50;99.90;;;;;;5103519;28;20039;-65
2021/10/16 09:34:46;;;;;;;5.38;2.10;;;10.50;99.90;;;;;;5104467;28;20036;-63
2021/10/16 09:37:18;;;;;;;9.30;2.15;;;10.50;99.90;;;;;;5097463;28;20044;-65
2021/10/16 09:39:49;;;;;;;13.40;2.67;;;10.60;99.90;;;;;;5105108;28;20060;-64
2021/10/16 09:42:37;;;;;;;8.23;2.55;;;10.70;99.90;;;;;;5104545;28;20089;-64
2021/10/16 09:45:09;;;;;;;8.00;1.77;;;10.70;99.90;;;;;;5084012;28;20047;-64
2021/10/16 09:47:35;;;;;;;9.20;2.35;;;10.70;99.90;;;;;;5104317;28;20126;-64
2021/10/16 09:50:09;;;;;;;6.57;2.13;;;10.70;99.90;;;;;;5104243;28;20094;-64
2021/10/16 09:52:36;;;;;;;6.47;2.20;;;10.80;99.90;;;;;;5095910;28;20040;-64
2021/10/16 09:55:03;;;;;;;7.78;2.15;;;10.80;99.90;;;;;;5103181;28;20056;-64
2021/10/16 09:57:30;;;;;;;10.43;2.70;;;10.80;99.90;;;;;;5101416;28;20036;-64
2021/10/16 09:59:58;;;;;;;6.30;1.85;;;10.90;99.90;;;;;;5077357;28;20056;-64
2021/10/16 10:02:27;;;;;;;10.73;2.65;;;10.90;99.90;;;;;;5104110;28;20039;-64
2021/10/16 10:04:55;;;;;;;11.40;2.88;;;11.00;99.90;;;;;;5098224;28;20097;-64
2021/10/16 10:07:21;;;;;;;7.55;2.03;;;11.00;99.90;;;;;;5103286;28;20127;-63
2021/10/16 10:09:47;;;;;;;10.68;2.72;;;11.10;99.90;;;;;;5099589;28;20051;-65
2021/10/16 10:12:14;;;;;;;9.85;2.40;;;11.20;99.90;;;;;;5099512;28;20044;-65
2021/10/16 10:14:41;;;;;;;6.82;2.45;;;11.10;99.90;;;;;;5103891;28;20040;-65
2021/10/16 10:17:10;;;;;;;9.30;2.67;;;11.10;99.90;;;;;;5083534;28;20092;-65
2021/10/16 10:19:42;;;;;;;11.50;2.20;;;11.20;99.90;;;;;;5095933;28;20047;-69
2021/10/16 10:22:18;;;;;;;10.38;2.47;;;11.20;99.90;;;;;;5104409;28;20040;-70
2021/10/16 10:24:46;;;;;;;11.85;2.25;;;11.30;99.90;;;;;;5098234;28;20051;-64
2021/10/16 10:27:14;;;;;;;7.68;1.92;;;11.20;99.90;;;;;;5098549;28;20139;-65
2021/10/16 10:29:42;;;;;;;;;;;11.30;99.90;;;;;;5100858;28;20047;-69
2021/10/16 10:32:27;;;;;;;6.27;2.23;;;11.30;99.90;;;;;;5102188;28;20339;-71
2021/10/16 10:34:58;;;;;;;10.13;3.25;;;11.20;99.90;;;;;;5099608;28;20044;-69
2021/10/16 10:37:41;;;;;;;8.15;2.90;;;11.30;99.90;;;;;;5094543;28;20048;-66
2021/10/16 10:40:35;;;;;;;17.33;2.25;;;11.30;99.90;;;;;;5094583;28;20047;-63
2021/10/16 10:43:01;;;;;;;7.55;2.35;;;11.40;99.90;;;;;;5102779;28;20040;-62
2021/10/16 10:45:33;;;;;;;9.32;2.40;;;11.40;99.90;;;;;;5100199;28;20071;-64
2021/10/16 10:48:06;;;;;;;9.07;2.33;;;11.40;99.90;;;;;;5080977;28;20040;-64
2021/10/16 10:50:59;;;;;;;8.63;2.80;;;11.50;99.90;;;;;;5093365;28;20055;-65
2021/10/16 10:53:27;;;;;;;8.52;3.00;;;11.50;99.90;;;;;;5097596;28;20075;-61
2021/10/16 10:56:14;;;;;;;5.47;2.50;;;11.70;99.90;;;;;;5096399;28;20040;-61
2021/10/16 10:58:59;;;;;;;9.30;2.90;;;11.70;99.90;;;;;;5106157;28;20059;-63
2021/10/16 11:01:52;;;;;;;4.45;2.35;;;11.80;99.90;;;;;;5101623;28;20436;-63
2021/10/16 11:04:38;;;;;;;7.80;2.45;;;11.80;99.90;;;;;;5083191;28;20078;-65
2021/10/16 11:07:06;;;;;;;7.70;2.83;;;11.90;99.90;;;;;;5101639;28;20244;-64
2021/10/16 11:09:35;;;;;;;9.05;2.22;;;;;;;;;;5081499;28;20573;-64
2021/10/16 11:12:01;;;;;;;7.80;2.55;;;12.00;99.90;;;;;;5101431;28;20048;-63
2021/10/16 11:14:30;;;;;;;9.27;2.58;;;12.10;99.90;;;;;;5101682;28;20541;-63
2021/10/16 11:16:58;;;;;;;14.05;2.60;;;12.10;99.90;;;;;;5102225;28;20052;-62
2021/10/16 11:19:24;;;;;;;6.97;2.45;;;12.20;99.90;;;;;;5097436;28;20040;-64
2021/10/16 11:21:53;;;;;;;9.73;1.88;;;12.20;99.90;;;;;;5103178;28;20040;-63
2021/10/16 11:24:20;;;;;;;10.18;2.83;;;12.20;99.90;;;;;;5100088;28;20047;-65
2021/10/16 11:26:56;;;;;;;5.82;2.53;;;12.30;99.90;;;;;;5077288;28;20044;-65
2021/10/16 11:29:35;;;;;;;7.70;2.65;;;12.30;99.90;;;;;;5100953;28;20054;-66
2021/10/16 11:32:10;;;;;;;10.35;2.35;;;12.30;99.90;;;;;;5078118;28;20097;-64
2021/10/16 11:34:35;;;;;;;16.60;2.97;;;12.40;99.90;;;;;;5096246;28;20048;-64
2021/10/16 11:37:01;;;;;;;8.95;2.58;;;12.50;99.90;;;;;;5077718;28;20047;-65
2021/10/16 11:39:29;;;;;;;10.95;2.35;;;12.50;99.90;;;;;;5092178;28;20036;-65
2021/10/16 11:41:56;;;;;;;9.10;2.20;;;12.40;99.90;;;;;;5095351;28;20403;-65
2021/10/16 11:44:21;;;;;;;11.40;2.88;;;12.50;99.90;;;;;;5093092;28;20101;-65
2021/10/16 11:47:07;;;;;;;9.30;2.67;;;12.50;99.90;;;;;;5100555;28;20072;-66
2021/10/16 11:49:32;;;;;;;11.65;2.78;;;12.50;99.90;;;;;;5092024;28;20036;-65
2021/10/16 11:51:59;;;;;;;9.55;2.22;;;12.60;99.90;;;;;;5097197;28;20495;-65
2021/10/16 11:54:25;;;;;;;7.37;2.37;;;12.60;99.90;;;;;;5093065;28;20594;-65
2021/10/16 11:56:57;;;;;;;7.05;1.92;;;12.50;99.90;;;;;;5099673;28;20294;-65
2021/10/16 11:59:23;;;;;;;7.15;2.78;;;12.50;99.90;;;;;;5078412;28;20083;-65
2021/10/16 12:01:49;;;;;;;8.38;2.45;;;12.40;99.90;;;;;;5084315;28;20048;-65
2021/10/16 12:04:14;;;;;;;7.93;2.45;;;12.50;99.90;;;;;;5100612;28;20151;-63
2021/10/16 12:06:42;;;;;;;8.27;2.13;;;12.60;99.90;;;;;;5096259;28;20078;-68
2021/10/16 12:09:12;;;;;;;10.57;2.90;;;12.70;99.90;;;;;;5091900;28;20047;-64
2021/10/16 12:11:38;;;;;;;9.18;2.30;;;12.80;99.90;;;;;;5098554;28;20040;-63
2021/10/16 12:14:06;;;;;;;8.88;2.72;;;12.90;99.90;;;;;;5096925;28;20036;-62
2021/10/16 12:16:40;;;;;;;7.50;2.15;;;13.00;99.90;;;;;;5096229;28;20582;-75
2021/10/16 12:19:16;;;;;;;7.90;2.22;;;13.00;99.90;;;;;;5091161;28;20047;-70
2021/10/16 12:21:45;;;;;;;5.95;2.38;;;13.00;99.90;;;;;;5104423;28;20040;-72
2021/10/16 12:24:19;;;;;;;6.97;2.40;;;13.00;99.90;;;;;;5099427;28;20041;-71
2021/10/16 12:27:02;;;;;;;10.30;2.35;;;13.00;99.90;;;;;;5101091;28;21908;-69
2021/10/16 12:29:30;;;;;;;5.25;1.98;;;13.00;99.90;;;;;;5092143;28;20052;-69
2021/10/16 12:31:56;;;;;;;7.07;2.45;;;12.90;99.90;;;;;;5098856;28;20040;-66
2021/10/16 12:34:32;;;;;;;9.73;2.65;;;12.90;99.90;;;;;;5102256;28;20044;-65
2021/10/16 12:37:04;;;;;;;9.35;2.83;;;12.90;99.90;;;;;;5099707;28;20519;-66
2021/10/16 12:39:37;;;;;;;8.52;2.38;;;12.80;99.90;;;;;;5102482;28;20093;-70
2021/10/16 12:42:17;;;;;;;11.02;2.30;;;12.80;99.90;;;;;;5099598;28;20047;-68
2021/10/16 12:44:45;;;;;;;9.55;2.20;;;12.80;99.90;;;;;;5094740;28;20040;-67
2021/10/16 12:47:24;;;;;;;11.68;2.75;;;12.70;99.90;;;;;;5098600;28;20039;-68
2021/10/16 12:49:53;;;;;;;7.60;2.35;;;12.80;99.90;;;;;;5102889;28;20074;-66